sensor_id;sensor_type;location;lat;lon;timestamp;P1;durP1;ratioP1;P2;durP2;ratioP2
57333;SDS011;43165;50.998;18.164;2023-06-22T00:08:24;16.40;;;15.10;;
57333;SDS011;43165;50.998;18.164;2023-06-22T00:18:08;20.70;;;18.60;;
57333;SDS011;43165;50.998;18.164;2023-06-22T00:27:57;24.40;;;21.80;;
57333;SDS011;43165;50.998;18.164;2023-06-22T00:37:39;26.70;;;24.30;;
57333;SDS011;43165;50.998;18.164;2023-06-22T00:47:25;43.00;;;30.40;;
57333;SDS011;43165;50.998;18.164;2023-06-22T00:57:15;30.90;;;25.90;;
57333;SDS011;43165;50.998;18.164;2023-06-22T01:17:20;37.60;;;27.40;;
57333;SDS011;43165;50.998;18.164;2023-06-22T01:27:40;22.00;;;20.10;;
57333;SDS011;43165;50.998;18.164;2023-06-22T01:37:32;28.30;;;25.40;;
57333;SDS011;43165;50.998;18.164;2023-06-22T01:47:17;26.80;;;24.10;;
57333;SDS011;43165;50.998;18.164;2023-06-22T01:56:59;37.00;;;24.10;;
57333;SDS011;43165;50.998;18.164;2023-06-22T02:06:47;65.30;;;28.80;;
57333;SDS011;43165;50.998;18.164;2023-06-22T02:16:34;22.90;;;21.10;;
57333;SDS011;43165;50.998;18.164;2023-06-22T02:26:22;43.20;;;28.60;;
57333;SDS011;43165;50.998;18.164;2023-06-22T02:36:06;30.60;;;25.60;;
57333;SDS011;43165;50.998;18.164;2023-06-22T02:53:09;28.30;;;22.30;;
57333;SDS011;43165;50.998;18.164;2023-06-22T03:00:27;69.30;;;52.50;;
57333;SDS011;43165;50.998;18.164;2023-06-22T03:10:12;38.90;;;26.50;;
57333;SDS011;43165;50.998;18.164;2023-06-22T03:20:00;34.10;;;26.40;;
57333;SDS011;43165;50.998;18.164;2023-06-22T03:29:44;29.20;;;26.20;;
57333;SDS011;43165;50.998;18.164;2023-06-22T03:39:29;34.90;;;25.80;;
57333;SDS011;43165;50.998;18.164;2023-06-22T03:49:11;33.80;;;28.40;;
57333;SDS011;43165;50.998;18.164;2023-06-22T03:58:53;53.60;;;30.40;;
57333;SDS011;43165;50.998;18.164;2023-06-22T04:08:35;53.30;;;36.70;;
57333;SDS011;43165;50.998;18.164;2023-06-22T04:18:17;37.70;;;33.60;;
57333;SDS011;43165;50.998;18.164;2023-06-22T04:28:03;35.50;;;31.40;;
57333;SDS011;43165;50.998;18.164;2023-06-22T04:37:52;33.20;;;29.80;;
57333;SDS011;43165;50.998;18.164;2023-06-22T04:45:18;48.60;;;42.90;;
57333;SDS011;43165;50.998;18.164;2023-06-22T04:55:05;51.90;;;31.70;;
57333;SDS011;43165;50.998;18.164;2023-06-22T05:05:06;13.50;;;12.70;;
57333;SDS011;43165;50.998;18.164;2023-06-22T05:14:53;25.10;;;22.80;;
57333;SDS011;43165;50.998;18.164;2023-06-22T05:24:42;33.20;;;24.00;;
57333;SDS011;43165;50.998;18.164;2023-06-22T05:34:26;17.40;;;15.90;;
57333;SDS011;43165;50.998;18.164;2023-06-22T05:44:08;8.20;;;7.70;;
57333;SDS011;43165;50.998;18.164;2023-06-22T05:53:50;16.00;;;12.40;;
57333;SDS011;43165;50.998;18.164;2023-06-22T06:03:33;15.40;;;14.20;;
57333;SDS011;43165;50.998;18.164;2023-06-22T06:13:18;10.20;;;9.50;;
57333;SDS011;43165;50.998;18.164;2023-06-22T06:23:00;14.80;;;13.60;;
57333;SDS011;43165;50.998;18.164;2023-06-22T06:32:45;11.20;;;10.50;;
57333;SDS011;43165;50.998;18.164;2023-06-22T06:42:39;9.70;;;9.10;;
57333;SDS011;43165;50.998;18.164;2023-06-22T06:52:32;10.00;;;9.40;;
57333;SDS011;43165;50.998;18.164;2023-06-22T07:09:39;10.50;;;9.90;;
57333;SDS011;43165;50.998;18.164;2023-06-22T07:19:27;8.90;;;8.10;;
57333;SDS011;43165;50.998;18.164;2023-06-22T07:29:16;10.30;;;9.50;;
57333;SDS011;43165;50.998;18.164;2023-06-22T07:39:01;10.50;;;9.80;;
57333;SDS011;43165;50.998;18.164;2023-06-22T07:48:46;13.20;;;8.40;;
57333;SDS011;43165;50.998;18.164;2023-06-22T07:58:32;9.40;;;8.90;;
57333;SDS011;43165;50.998;18.164;2023-06-22T08:08:15;10.80;;;10.10;;
57333;SDS011;43165;50.998;18.164;2023-06-22T08:17:58;8.00;;;7.20;;
57333;SDS011;43165;50.998;18.164;2023-06-22T08:27:44;10.40;;;9.40;;
57333;SDS011;43165;50.998;18.164;2023-06-22T08:37:29;8.90;;;8.40;;
57333;SDS011;43165;50.998;18.164;2023-06-22T08:47:19;9.10;;;8.20;;
57333;SDS011;43165;50.998;18.164;2023-06-22T08:57:04;14.40;;;9.00;;
57333;SDS011;43165;50.998;18.164;2023-06-22T09:06:47;8.60;;;8.10;;
57333;SDS011;43165;50.998;18.164;2023-06-22T09:17:37;8.90;;;8.40;;
57333;SDS011;43165;50.998;18.164;2023-06-22T09:27:22;5.00;;;4.70;;
57333;SDS011;43165;50.998;18.164;2023-06-22T09:37:05;7.20;;;6.60;;
57333;SDS011;43165;50.998;18.164;2023-06-22T09:46:49;5.70;;;5.20;;
57333;SDS011;43165;50.998;18.164;2023-06-22T09:56:31;4.60;;;4.30;;
57333;SDS011;43165;50.998;18.164;2023-06-22T10:06:14;6.50;;;6.00;;
57333;SDS011;43165;50.998;18.164;2023-06-22T10:15:56;6.10;;;5.70;;
57333;SDS011;43165;50.998;18.164;2023-06-22T10:25:40;4.50;;;4.10;;
57333;SDS011;43165;50.998;18.164;2023-06-22T10:35:23;5.10;;;4.80;;
57333;SDS011;43165;50.998;18.164;2023-06-22T10:45:06;6.40;;;6.00;;
57333;SDS011;43165;50.998;18.164;2023-06-22T10:54:49;4.50;;;4.30;;
57333;SDS011;43165;50.998;18.164;2023-06-22T11:04:32;5.00;;;4.80;;
57333;SDS011;43165;50.998;18.164;2023-06-22T11:14:14;4.30;;;4.10;;
57333;SDS011;43165;50.998;18.164;2023-06-22T11:23:56;3.50;;;3.30;;
57333;SDS011;43165;50.998;18.164;2023-06-22T11:33:39;4.90;;;4.50;;
57333;SDS011;43165;50.998;18.164;2023-06-22T11:43:23;4.70;;;4.50;;
57333;SDS011;43165;50.998;18.164;2023-06-22T11:53:05;5.10;;;4.80;;
57333;SDS011;43165;50.998;18.164;2023-06-22T12:02:50;3.20;;;3.10;;
57333;SDS011;43165;50.998;18.164;2023-06-22T12:12:35;5.50;;;5.20;;
57333;SDS011;43165;50.998;18.164;2023-06-22T12:22:20;4.10;;;3.80;;
57333;SDS011;43165;50.998;18.164;2023-06-22T12:32:01;4.90;;;4.50;;
57333;SDS011;43165;50.998;18.164;2023-06-22T12:41:45;1.10;;;1.10;;
57333;SDS011;43165;50.998;18.164;2023-06-22T12:51:29;4.00;;;3.80;;
57333;SDS011;43165;50.998;18.164;2023-06-22T13:01:12;5.00;;;4.50;;
57333;SDS011;43165;50.998;18.164;2023-06-22T13:10:54;5.20;;;3.90;;
57333;SDS011;43165;50.998;18.164;2023-06-22T13:20:41;2.60;;;2.50;;
57333;SDS011;43165;50.998;18.164;2023-06-22T13:30:22;2.90;;;2.80;;
57333;SDS011;43165;50.998;18.164;2023-06-22T13:40:05;3.20;;;3.00;;
57333;SDS011;43165;50.998;18.164;2023-06-22T13:49:49;8.60;;;2.70;;
57333;SDS011;43165;50.998;18.164;2023-06-22T13:59:31;3.40;;;3.20;;
57333;SDS011;43165;50.998;18.164;2023-06-22T14:09:15;4.00;;;3.70;;
57333;SDS011;43165;50.998;18.164;2023-06-22T14:18:57;9.40;;;3.60;;
57333;SDS011;43165;50.998;18.164;2023-06-22T14:28:43;4.40;;;4.20;;
57333;SDS011;43165;50.998;18.164;2023-06-22T14:38:30;4.50;;;4.30;;
57333;SDS011;43165;50.998;18.164;2023-06-22T14:48:12;4.20;;;3.90;;
57333;SDS011;43165;50.998;18.164;2023-06-22T14:57:54;6.20;;;5.90;;
57333;SDS011;43165;50.998;18.164;2023-06-22T15:07:36;3.10;;;2.90;;
57333;SDS011;43165;50.998;18.164;2023-06-22T15:17:18;4.90;;;4.60;;
57333;SDS011;43165;50.998;18.164;2023-06-22T15:27:00;5.60;;;5.10;;
57333;SDS011;43165;50.998;18.164;2023-06-22T15:36:42;7.60;;;6.30;;
57333;SDS011;43165;50.998;18.164;2023-06-22T15:46:24;4.40;;;4.10;;
57333;SDS011;43165;50.998;18.164;2023-06-22T15:56:06;4.80;;;4.30;;
57333;SDS011;43165;50.998;18.164;2023-06-22T16:05:56;5.40;;;5.00;;
57333;SDS011;43165;50.998;18.164;2023-06-22T16:15:44;4.20;;;3.90;;
57333;SDS011;43165;50.998;18.164;2023-06-22T16:25:29;3.20;;;3.00;;
57333;SDS011;43165;50.998;18.164;2023-06-22T16:35:24;3.80;;;3.50;;
57333;SDS011;43165;50.998;18.164;2023-06-22T16:52:40;5.00;;;4.60;;
57333;SDS011;43165;50.998;18.164;2023-06-22T17:02:40;4.30;;;4.10;;
57333;SDS011;43165;50.998;18.164;2023-06-22T17:12:26;38.90;;;3.60;;
57333;SDS011;43165;50.998;18.164;2023-06-22T17:22:13;4.60;;;4.20;;
57333;SDS011;43165;50.998;18.164;2023-06-22T17:31:57;3.30;;;3.10;;
